createdAt,value
2023-04-26T00:00:09.432Z,5.65
2023-04-26T00:03:00.254Z,5.63
2023-04-26T00:05:29.798Z,5.67
2023-04-26T00:07:58.446Z,5.68
2023-04-26T00:10:26.987Z,5.65
2023-04-26T00:12:55.375Z,5.64
2023-04-26T00:15:23.649Z,5.67
2023-04-26T00:17:51.777Z,5.70
2023-04-26T00:20:20.111Z,5.71
2023-04-26T00:22:48.209Z,5.64
2023-04-26T00:25:16.454Z,5.64
2023-04-26T00:27:44.837Z,5.58
2023-04-26T00:30:13.823Z,5.56
2023-04-26T00:32:41.895Z,5.53
2023-04-26T00:35:10.676Z,5.54
2023-04-26T00:37:38.764Z,5.57
2023-04-26T00:40:07.536Z,5.58
2023-04-26T00:42:36.018Z,5.62
2023-04-26T00:45:05.512Z,5.60
2023-04-26T00:47:34.134Z,5.56
2023-04-26T00:50:02.419Z,5.57
2023-04-26T00:52:32.123Z,5.57
2023-04-26T00:55:00.574Z,5.58
2023-04-26T00:57:28.940Z,5.52
2023-04-26T00:59:57.131Z,5.46
2023-04-26T01:02:27.193Z,5.41
2023-04-26T01:04:56.036Z,5.35
2023-04-26T01:07:24.408Z,5.36
2023-04-26T01:09:52.931Z,5.32
2023-04-26T01:12:24.542Z,5.36
2023-04-26T01:14:53.631Z,5.35
2023-04-26T01:17:21.728Z,5.35
2023-04-26T01:19:51.152Z,5.38
2023-04-26T01:22:19.276Z,5.41
2023-04-26T01:24:51.416Z,5.41
2023-04-26T01:27:19.573Z,5.37
2023-04-26T01:29:49.324Z,5.36
2023-04-26T01:32:17.636Z,5.33
2023-04-26T01:34:45.775Z,5.33
2023-04-26T01:37:13.852Z,5.34
2023-04-26T01:39:42.258Z,5.31
2023-04-26T01:42:10.297Z,5.32
2023-04-26T01:44:38.581Z,5.26
2023-04-26T01:47:06.744Z,5.30
2023-04-26T01:49:35.127Z,5.29
2023-04-26T01:52:03.921Z,5.26
2023-04-26T01:54:32.198Z,5.26
2023-04-26T01:57:02.810Z,5.25
2023-04-26T01:59:31.191Z,5.27
2023-04-26T02:02:00.386Z,5.30
2023-04-26T02:04:29.058Z,5.29
2023-04-26T02:06:57.571Z,5.30
2023-04-26T02:09:25.735Z,5.29
2023-04-26T02:11:54.201Z,5.29
2023-04-26T02:14:22.411Z,5.31
2023-04-26T02:16:52.037Z,5.31
2023-04-26T02:19:21.121Z,5.32
2023-04-26T02:21:57.331Z,5.33
2023-04-26T02:24:26.226Z,5.32
2023-04-26T02:26:54.929Z,5.31
2023-04-26T02:29:36.342Z,5.30
2023-04-26T02:32:11.358Z,5.27
2023-04-26T02:34:39.393Z,5.26
2023-04-26T02:37:07.785Z,5.25
2023-04-26T02:39:36.363Z,5.26
2023-04-26T02:42:05.171Z,5.27
2023-04-26T02:44:33.450Z,5.27
2023-04-26T02:47:02.226Z,5.27
2023-04-26T02:49:31.117Z,5.31
2023-04-26T02:51:59.313Z,5.29
2023-04-26T02:54:27.772Z,5.30
2023-04-26T02:56:55.846Z,5.31
2023-04-26T02:59:24.121Z,5.32
2023-04-26T03:01:52.342Z,5.34
2023-04-26T03:04:21.005Z,5.31
2023-04-26T03:06:49.252Z,5.29
2023-04-26T03:09:18.055Z,5.28
2023-04-26T03:11:48.215Z,5.27
2023-04-26T03:14:18.288Z,5.24
2023-04-26T03:16:48.553Z,5.23
2023-04-26T03:19:16.992Z,5.22
2023-04-26T03:21:45.565Z,5.22
2023-04-26T03:24:13.960Z,5.22
2023-04-26T03:26:42.234Z,5.25
2023-04-26T03:29:10.810Z,5.25
2023-04-26T03:31:39.407Z,5.27
2023-04-26T03:34:08.284Z,5.27
2023-04-26T03:36:36.558Z,5.29
2023-04-26T03:39:06.407Z,5.29
2023-04-26T03:41:37.106Z,5.26
2023-04-26T03:44:06.913Z,5.26
2023-04-26T03:46:35.006Z,5.26
2023-04-26T03:49:03.097Z,5.24
2023-04-26T03:51:31.478Z,5.18
2023-04-26T03:53:59.926Z,5.14
2023-04-26T03:56:28.290Z,5.11
2023-04-26T03:58:57.087Z,5.11
2023-04-26T04:01:26.171Z,5.07
2023-04-26T04:03:55.339Z,5.01
2023-04-26T04:06:23.648Z,4.98
2023-04-26T04:08:52.000Z,4.99
2023-04-26T04:11:20.643Z,4.98
2023-04-26T04:13:49.189Z,5.02
2023-04-26T04:16:17.366Z,5.02
2023-04-26T04:18:45.662Z,5.03
2023-04-26T04:21:13.614Z,5.06
2023-04-26T04:23:42.611Z,5.08
2023-04-26T04:26:12.819Z,5.09
2023-04-26T04:28:42.239Z,5.13
2023-04-26T04:31:10.347Z,5.20
2023-04-26T04:33:39.091Z,5.25
2023-04-26T04:36:08.432Z,5.24
2023-04-26T04:38:37.582Z,5.25
2023-04-26T04:41:08.681Z,5.28
2023-04-26T04:43:37.510Z,5.32
2023-04-26T04:46:05.821Z,5.33
2023-04-26T04:48:35.807Z,5.30
2023-04-26T04:51:04.015Z,5.30
2023-04-26T04:53:32.358Z,5.27
2023-04-26T04:56:00.945Z,5.23
2023-04-26T04:58:29.223Z,5.22
2023-04-26T05:00:58.245Z,5.23
2023-04-26T05:03:30.203Z,5.21
2023-04-26T05:05:58.523Z,5.15
2023-04-26T05:08:26.639Z,5.14
2023-04-26T05:10:56.965Z,5.10
2023-04-26T05:13:25.425Z,5.11
2023-04-26T05:15:54.086Z,5.05
2023-04-26T05:18:22.909Z,5.04
2023-04-26T05:20:51.292Z,4.99
2023-04-26T05:23:19.660Z,4.99
2023-04-26T05:25:48.134Z,5.00
2023-04-26T05:28:34.966Z,5.01
2023-04-26T05:31:15.034Z,5.02
2023-04-26T05:34:04.139Z,5.03
2023-04-26T05:36:42.211Z,5.07
2023-04-26T05:39:10.828Z,5.12
2023-04-26T05:41:39.436Z,5.17
2023-04-26T05:44:07.532Z,5.26
2023-04-26T05:46:36.157Z,5.34
2023-04-26T05:49:04.269Z,5.38
2023-04-26T05:51:32.961Z,5.42
2023-04-26T05:54:01.161Z,5.43
2023-04-26T05:56:29.518Z,5.44
2023-04-26T05:58:58.236Z,5.50
2023-04-26T06:01:26.665Z,5.53
2023-04-26T06:03:57.973Z,5.55
2023-04-26T06:06:28.554Z,5.58
2023-04-26T06:08:57.034Z,5.57
2023-04-26T06:11:25.136Z,5.55
2023-04-26T06:13:55.191Z,5.55
2023-04-26T06:16:23.641Z,5.58
2023-04-26T06:18:51.957Z,5.59
2023-04-26T06:21:20.172Z,5.61
2023-04-26T06:23:48.845Z,5.60
2023-04-26T06:26:18.729Z,5.57
2023-04-26T06:28:47.107Z,5.56
2023-04-26T06:31:15.310Z,5.54
2023-04-26T06:33:43.443Z,5.50
2023-04-26T06:36:13.395Z,5.48
2023-04-26T06:38:42.490Z,5.48
2023-04-26T06:41:10.660Z,5.49
2023-04-26T06:43:38.986Z,5.49
2023-04-26T06:46:09.220Z,5.49
2023-04-26T06:48:37.321Z,5.50
2023-04-26T06:51:09.006Z,5.52
2023-04-26T06:53:37.483Z,5.56
2023-04-26T06:56:05.830Z,5.62
2023-04-26T06:58:33.766Z,5.67
2023-04-26T07:01:02.419Z,5.69
2023-04-26T07:03:31.079Z,5.76
2023-04-26T07:05:59.285Z,5.80
2023-04-26T07:08:27.429Z,5.80
2023-04-26T07:10:55.624Z,5.84
2023-04-26T07:13:23.782Z,5.87
2023-04-26T07:23:39.405Z,6.00
2023-04-26T07:26:07.695Z,5.94
2023-04-26T07:28:35.877Z,5.94
2023-04-26T07:31:07.072Z,5.93
2023-04-26T07:33:37.143Z,5.93
2023-04-26T07:36:06.218Z,5.89
2023-04-26T07:38:34.505Z,5.86
2023-04-26T07:41:02.607Z,5.84
2023-04-26T07:43:31.676Z,5.83
2023-04-26T07:46:02.816Z,5.82
2023-04-26T07:48:30.980Z,5.80
2023-04-26T07:51:15.716Z,5.77
2023-04-26T07:53:43.910Z,5.73
2023-04-26T07:56:11.937Z,5.73
2023-04-26T07:58:40.159Z,5.76
2023-04-26T08:01:08.932Z,5.78
2023-04-26T08:03:37.721Z,5.79
2023-04-26T08:06:06.812Z,5.81
2023-04-26T08:08:40.657Z,5.88
2023-04-26T08:11:10.043Z,5.97
2023-04-26T08:13:38.236Z,6.08
2023-04-26T08:16:06.697Z,6.18
2023-04-26T08:18:34.809Z,6.31
2023-04-26T08:21:02.932Z,6.46
2023-04-26T08:23:37.888Z,6.66
2023-04-26T08:26:06.686Z,6.82
2023-04-26T08:28:35.944Z,6.98
2023-04-26T08:31:05.011Z,7.22
2023-04-26T08:33:33.136Z,7.51
2023-04-26T08:36:02.283Z,7.67
2023-04-26T08:38:30.905Z,7.82
2023-04-26T08:41:02.868Z,7.98
2023-04-26T08:43:31.344Z,8.06
2023-04-26T08:46:01.065Z,8.14
2023-04-26T08:48:34.409Z,8.23
2023-04-26T08:51:03.126Z,8.35
2023-04-26T08:53:32.250Z,8.30
2023-04-26T08:56:02.443Z,8.28
2023-04-26T08:58:32.515Z,8.30
2023-04-26T09:01:03.532Z,8.26
2023-04-26T09:03:31.825Z,8.22
2023-04-26T09:06:03.863Z,8.25
2023-04-26T09:08:37.040Z,8.49
2023-04-26T09:11:05.313Z,8.64
2023-04-26T09:13:33.428Z,8.93
2023-04-26T09:16:03.513Z,9.18
2023-04-26T09:18:34.126Z,9.13
2023-04-26T09:21:08.239Z,9.09
2023-04-26T09:23:36.881Z,9.13
2023-04-26T09:26:21.844Z,9.10
2023-04-26T09:28:50.961Z,9.10
2023-04-26T09:31:39.018Z,9.07
2023-04-26T09:34:08.845Z,8.98
2023-04-26T09:36:47.919Z,8.87
2023-04-26T09:39:31.788Z,8.80
2023-04-26T09:42:00.550Z,8.73
2023-04-26T09:44:30.182Z,8.74
2023-04-26T09:47:00.177Z,8.81
2023-04-26T09:49:50.596Z,8.94
2023-04-26T09:52:19.881Z,9.09
2023-04-26T09:54:52.213Z,9.30
2023-04-26T09:57:22.500Z,9.54
2023-04-26T09:59:55.322Z,9.83
2023-04-26T10:02:28.165Z,10.05
2023-04-26T10:04:57.453Z,10.24
2023-04-26T10:07:26.404Z,10.32
2023-04-26T10:09:55.814Z,10.23
2023-04-26T10:12:24.196Z,10.08
2023-04-26T10:14:52.321Z,9.81
2023-04-26T10:17:23.015Z,9.58
2023-04-26T10:19:59.534Z,9.32
2023-04-26T10:22:31.514Z,9.14
2023-04-26T10:25:00.168Z,9.01
2023-04-26T10:27:49.009Z,8.99
2023-04-26T10:30:19.374Z,9.03
2023-04-26T10:32:56.583Z,9.07
2023-04-26T10:35:30.705Z,9.11
2023-04-26T10:38:02.098Z,9.03
2023-04-26T10:40:36.409Z,8.90
2023-04-26T10:43:28.244Z,8.73
2023-04-26T10:45:57.133Z,8.58
2023-04-26T10:48:28.332Z,8.51
2023-04-26T10:51:02.693Z,8.43
2023-04-26T10:53:46.350Z,8.42
2023-04-26T10:56:23.811Z,8.47
2023-04-26T10:59:28.550Z,8.58
2023-04-26T11:02:00.881Z,8.81
2023-04-26T11:05:04.701Z,9.11
2023-04-26T11:07:39.595Z,9.69
2023-04-26T11:10:22.566Z,10.22
2023-04-26T11:13:01.518Z,10.52
2023-04-26T11:15:32.018Z,10.58
2023-04-26T11:18:04.786Z,10.48
2023-04-26T11:20:34.038Z,10.33
2023-04-26T11:23:02.743Z,10.11
2023-04-26T11:25:31.455Z,9.93
2023-04-26T11:28:02.208Z,9.88
2023-04-26T11:30:32.139Z,9.92
2023-04-26T11:33:01.569Z,10.01
2023-04-26T11:35:30.937Z,9.97
2023-04-26T11:38:02.839Z,9.88
2023-04-26T11:40:32.812Z,9.83
2023-04-26T11:43:11.721Z,9.86
2023-04-26T11:45:39.883Z,9.93
2023-04-26T11:48:11.332Z,9.94
2023-04-26T11:50:40.485Z,9.94
2023-04-26T11:53:09.156Z,9.95
2023-04-26T11:55:37.599Z,10.02
2023-04-26T11:58:12.390Z,10.23
2023-04-26T12:01:01.906Z,10.50
2023-04-26T12:03:37.933Z,10.66
2023-04-26T12:06:06.976Z,10.87
2023-04-26T12:08:35.012Z,11.02
2023-04-26T12:11:03.390Z,11.21
2023-04-26T12:13:32.801Z,11.28
2023-04-26T12:16:18.532Z,11.19
2023-04-26T12:18:54.794Z,10.97
2023-04-26T12:21:24.520Z,10.86
2023-04-26T12:23:52.937Z,10.73
2023-04-26T12:26:21.218Z,10.50
2023-04-26T12:28:49.406Z,10.41
2023-04-26T12:31:17.482Z,10.47
2023-04-26T12:33:46.043Z,10.58
2023-04-26T12:36:14.386Z,10.68
2023-04-26T12:38:43.003Z,10.72
2023-04-26T12:41:11.524Z,10.62
2023-04-26T12:43:39.673Z,10.44
2023-04-26T12:46:07.791Z,10.26
2023-04-26T12:48:36.356Z,10.14
2023-04-26T12:51:04.627Z,10.16
2023-04-26T12:53:32.706Z,10.18
2023-04-26T12:56:01.102Z,10.29
2023-04-26T12:58:29.221Z,10.38
2023-04-26T13:00:57.348Z,10.31
2023-04-26T13:03:25.675Z,10.17
2023-04-26T13:05:54.480Z,10.10
2023-04-26T13:08:24.437Z,10.07
2023-04-26T13:10:52.595Z,10.07
2023-04-26T13:13:26.172Z,9.99
2023-04-26T13:15:57.506Z,9.84
2023-04-26T13:18:25.594Z,9.72
2023-04-26T13:20:54.300Z,9.60
2023-04-26T13:23:22.380Z,9.54
2023-04-26T13:25:50.432Z,9.45
2023-04-26T13:28:18.594Z,9.37
2023-04-26T13:30:46.740Z,9.34
2023-04-26T13:33:14.934Z,9.35
2023-04-26T13:35:43.140Z,9.36
2023-04-26T13:38:12.178Z,9.42
2023-04-26T13:40:40.746Z,9.42
2023-04-26T13:43:08.925Z,9.43
2023-04-26T13:45:37.010Z,9.44
2023-04-26T13:48:05.208Z,9.43
2023-04-26T13:50:35.309Z,9.38
2023-04-26T13:53:04.499Z,9.30
2023-04-26T13:55:32.565Z,9.28
2023-04-26T13:58:01.006Z,9.26
2023-04-26T14:00:29.194Z,9.26
2023-04-26T14:02:57.414Z,9.20
2023-04-26T14:05:25.813Z,9.10
2023-04-26T14:07:55.356Z,8.98
2023-04-26T14:10:23.751Z,8.89
2023-04-26T14:12:52.176Z,8.84
2023-04-26T14:15:20.473Z,8.80
2023-04-26T14:17:49.040Z,8.75
2023-04-26T14:20:17.400Z,8.73
2023-04-26T14:22:46.348Z,8.70
2023-04-26T14:25:14.291Z,8.67
2023-04-26T14:27:43.525Z,8.64
2023-04-26T14:30:12.086Z,8.62
2023-04-26T14:32:41.525Z,8.60
2023-04-26T14:35:09.710Z,8.56
2023-04-26T14:37:37.834Z,8.54
2023-04-26T14:40:08.140Z,8.49
2023-04-26T14:42:36.350Z,8.41
2023-04-26T14:45:05.006Z,8.31
2023-04-26T14:47:33.051Z,8.23
2023-04-26T14:50:01.221Z,8.19
2023-04-26T14:52:29.302Z,8.12
2023-04-26T14:54:58.766Z,8.09
2023-04-26T14:57:26.985Z,8.10
2023-04-26T14:59:55.126Z,8.11
2023-04-26T15:02:23.351Z,8.12
2023-04-26T15:04:51.662Z,8.11
2023-04-26T15:07:31.417Z,8.11
2023-04-26T15:10:00.800Z,8.12
2023-04-26T15:12:29.248Z,8.14
2023-04-26T15:14:57.628Z,8.15
2023-04-26T15:17:25.806Z,8.18
2023-04-26T15:19:54.070Z,8.24
2023-04-26T15:22:22.300Z,8.28
2023-04-26T15:24:51.254Z,8.32
2023-04-26T15:27:19.396Z,8.33
2023-04-26T15:29:47.530Z,8.36
2023-04-26T15:32:15.746Z,8.35
2023-04-26T15:34:45.356Z,8.35
2023-04-26T15:37:13.592Z,8.35
2023-04-26T15:39:41.695Z,8.36
2023-04-26T15:42:09.829Z,8.34
2023-04-26T15:44:37.848Z,8.35
2023-04-26T15:47:06.098Z,8.40
2023-04-26T15:49:34.236Z,8.46
2023-04-26T15:52:02.341Z,8.50
2023-04-26T15:54:30.394Z,8.52
2023-04-26T15:56:58.434Z,8.52
2023-04-26T15:59:26.974Z,8.48
2023-04-26T16:01:55.051Z,8.41
2023-04-26T16:04:23.316Z,8.39
2023-04-26T16:06:51.711Z,8.42
2023-04-26T16:11:51.496Z,8.43
2023-04-26T16:14:19.711Z,8.37
2023-04-26T16:16:47.763Z,8.28
2023-04-26T16:19:17.536Z,8.18
2023-04-26T16:21:45.715Z,8.12
2023-04-26T16:24:13.952Z,8.10
2023-04-26T16:26:42.658Z,8.08
2023-04-26T16:29:10.813Z,8.09
2023-04-26T16:31:39.074Z,8.08
2023-04-26T16:34:07.246Z,8.07
2023-04-26T16:36:35.690Z,8.04
2023-04-26T16:39:03.838Z,8.00
2023-04-26T16:41:31.979Z,7.97
2023-04-26T16:43:59.964Z,7.90
2023-04-26T16:46:28.261Z,7.86
2023-04-26T16:48:56.601Z,7.78
2023-04-26T16:51:24.984Z,7.67
2023-04-26T16:53:53.027Z,7.57
2023-04-26T16:56:21.131Z,7.47
2023-04-26T16:58:49.513Z,7.35
2023-04-26T17:01:17.518Z,7.26
2023-04-26T17:03:46.736Z,7.14
2023-04-26T17:06:15.050Z,7.04
2023-04-26T17:08:43.445Z,6.93
2023-04-26T17:11:17.941Z,6.83
2023-04-26T17:13:46.272Z,6.72
2023-04-26T17:16:14.482Z,6.64
2023-04-26T17:18:42.698Z,6.58
2023-04-26T17:21:10.826Z,6.48
2023-04-26T17:23:38.991Z,6.37
2023-04-26T17:26:07.188Z,6.29
2023-04-26T17:28:36.006Z,6.18
2023-04-26T17:31:04.161Z,6.08
2023-04-26T17:33:32.729Z,6.01
2023-04-26T17:36:01.882Z,5.95
2023-04-26T17:38:30.153Z,5.84
2023-04-26T17:40:59.795Z,5.73
2023-04-26T17:43:27.890Z,5.66
2023-04-26T17:45:56.278Z,5.64
2023-04-26T17:48:24.659Z,5.56
2023-04-26T17:50:53.695Z,5.43
2023-04-26T17:53:22.687Z,5.32
2023-04-26T17:55:51.989Z,5.28
2023-04-26T17:58:20.065Z,5.25
2023-04-26T18:00:51.320Z,5.18
2023-04-26T18:03:20.620Z,5.10
2023-04-26T18:05:49.405Z,5.06
2023-04-26T18:08:17.540Z,4.99
2023-04-26T18:10:47.846Z,4.95
2023-04-26T18:13:17.257Z,4.98
2023-04-26T18:15:45.604Z,4.99
2023-04-26T18:18:13.882Z,4.99
2023-04-26T18:20:42.263Z,4.92
2023-04-26T18:23:10.851Z,4.82
2023-04-26T18:25:39.101Z,4.75
2023-04-26T18:28:08.827Z,4.75
2023-04-26T18:30:36.916Z,4.66
2023-04-26T18:33:05.225Z,4.65
2023-04-26T18:35:34.778Z,4.57
2023-04-26T18:38:03.881Z,4.49
2023-04-26T18:40:33.030Z,4.39
2023-04-26T18:43:03.317Z,4.30
2023-04-26T18:45:31.588Z,4.23
2023-04-26T18:48:00.070Z,4.14
2023-04-26T18:50:28.411Z,4.02
2023-04-26T18:52:56.899Z,3.98
2023-04-26T18:55:26.124Z,3.88
2023-04-26T18:57:54.643Z,3.75
2023-04-26T19:00:24.970Z,3.63
2023-04-26T19:02:53.572Z,3.58
2023-04-26T19:05:24.389Z,3.58
2023-04-26T19:07:53.503Z,3.55
2023-04-26T19:10:24.489Z,3.47
2023-04-26T19:12:52.601Z,3.44
2023-04-26T19:15:21.032Z,3.37
2023-04-26T19:17:51.972Z,3.29
2023-04-26T19:20:20.500Z,3.22
2023-04-26T19:22:48.759Z,3.12
2023-04-26T19:25:23.140Z,2.97
2023-04-26T19:27:52.467Z,2.92
2023-04-26T19:30:20.569Z,2.92
2023-04-26T19:32:49.164Z,2.87
2023-04-26T19:35:17.281Z,2.85
2023-04-26T19:37:45.606Z,2.87
2023-04-26T19:40:13.712Z,2.87
2023-04-26T19:42:41.883Z,2.92
2023-04-26T19:45:10.671Z,3.04
2023-04-26T19:47:42.053Z,3.17
2023-04-26T19:50:11.184Z,3.15
2023-04-26T19:52:39.408Z,3.03
2023-04-26T19:55:07.823Z,3.12
2023-04-26T19:57:36.384Z,3.16
2023-04-26T20:00:07.567Z,3.22
2023-04-26T20:02:35.905Z,3.37
2023-04-26T20:05:05.212Z,3.51
2023-04-26T20:07:33.269Z,3.64
2023-04-26T20:10:01.371Z,3.67
2023-04-26T20:12:30.417Z,3.67
2023-04-26T20:14:58.600Z,3.68
2023-04-26T20:17:26.708Z,3.62
2023-04-26T20:19:54.827Z,3.56
2023-04-26T20:22:22.987Z,3.58
2023-04-26T20:24:51.048Z,3.56
2023-04-26T20:27:19.232Z,3.53
2023-04-26T20:29:47.476Z,3.50
2023-04-26T20:32:15.807Z,3.50
2023-04-26T20:34:44.232Z,3.50
2023-04-26T20:37:12.772Z,3.57
2023-04-26T20:39:40.844Z,3.59
2023-04-26T20:42:09.790Z,3.60
2023-04-26T20:44:38.159Z,3.60
2023-04-26T20:47:06.284Z,3.61
2023-04-26T20:49:34.326Z,3.61
2023-04-26T20:52:02.367Z,3.58
2023-04-26T20:54:30.483Z,3.58
2023-04-26T20:56:58.995Z,3.60
2023-04-26T20:59:27.433Z,3.62
2023-04-26T21:01:55.678Z,3.61
2023-04-26T21:04:24.212Z,3.62
2023-04-26T21:06:52.747Z,3.64
2023-04-26T21:09:21.670Z,3.66
2023-04-26T21:11:49.728Z,3.68
2023-04-26T21:14:17.698Z,3.71
2023-04-26T21:16:46.117Z,3.72
2023-04-26T21:19:14.266Z,3.69
2023-04-26T21:21:42.310Z,3.66
2023-04-26T21:24:10.574Z,3.68
2023-04-26T21:26:38.724Z,3.73
2023-04-26T21:29:07.884Z,3.77
2023-04-26T21:31:36.510Z,3.81
2023-04-26T21:34:04.589Z,3.83
2023-04-26T21:36:32.712Z,3.84
2023-04-26T21:39:01.436Z,3.89
2023-04-26T21:41:29.740Z,3.90
2023-04-26T21:43:58.823Z,3.94
2023-04-26T21:46:27.009Z,4.01
2023-04-26T21:48:55.183Z,4.04
2023-04-26T21:51:23.555Z,4.10
2023-04-26T21:53:51.884Z,4.17
2023-04-26T21:56:19.934Z,4.21
2023-04-26T21:58:48.023Z,4.18
2023-04-26T22:01:16.829Z,4.22
2023-04-26T22:03:45.093Z,4.24
2023-04-26T22:06:13.284Z,4.27
2023-04-26T22:08:41.409Z,4.32
2023-04-26T22:11:09.420Z,4.28
2023-04-26T22:13:37.494Z,4.23
2023-04-26T22:16:06.404Z,4.20
2023-04-26T22:18:35.506Z,4.16
2023-04-26T22:21:04.025Z,4.12
2023-04-26T22:23:32.288Z,4.07
2023-04-26T22:26:00.832Z,3.98
2023-04-26T22:28:28.948Z,3.90
2023-04-26T22:30:57.161Z,3.86
2023-04-26T22:33:25.355Z,3.84
2023-04-26T22:35:57.849Z,3.82
2023-04-26T22:38:26.405Z,3.78
2023-04-26T22:40:54.615Z,3.73
2023-04-26T22:43:23.816Z,3.66
2023-04-26T22:45:52.026Z,3.55
2023-04-26T22:48:20.201Z,3.50
2023-04-26T22:50:50.307Z,3.44
2023-04-26T22:53:18.409Z,3.36
2023-04-26T22:55:46.590Z,3.27
2023-04-26T22:58:14.782Z,3.22
2023-04-26T23:00:42.948Z,3.18
2023-04-26T23:03:11.200Z,3.11
2023-04-26T23:05:39.380Z,3.02
2023-04-26T23:08:07.557Z,2.94
2023-04-26T23:10:35.576Z,2.88
2023-04-26T23:13:05.040Z,2.80
2023-04-26T23:15:33.115Z,2.72
2023-04-26T23:18:01.249Z,2.64
2023-04-26T23:20:29.568Z,2.57
2023-04-26T23:22:57.780Z,2.49
2023-04-26T23:25:26.234Z,2.38
2023-04-26T23:27:54.222Z,2.28
2023-04-26T23:30:22.383Z,2.21
2023-04-26T23:32:50.776Z,2.12
2023-04-26T23:35:18.975Z,2.05
2023-04-26T23:37:47.128Z,1.97
2023-04-26T23:40:15.313Z,1.90
2023-04-26T23:42:43.276Z,1.89
2023-04-26T23:45:12.070Z,1.87
2023-04-26T23:47:40.250Z,1.82
2023-04-26T23:50:09.046Z,1.75
2023-04-26T23:52:37.300Z,1.72
2023-04-26T23:55:06.800Z,1.66
2023-04-26T23:57:34.905Z,1.62
